sensor_id;sensor_type;location;lat;lon;timestamp;pressure;altitude;pressure_sealevel;temperature;humidity
72262;BME280;60173;52.112;8.648;2022-09-12T00:01:46;100839.63;;;12.23;93.54
72262;BME280;60173;52.112;8.648;2022-09-12T00:04:12;100841.81;;;12.20;93.69
72262;BME280;60173;52.112;8.648;2022-09-12T00:06:38;100839.22;;;12.15;93.80
72262;BME280;60173;52.112;8.648;2022-09-12T00:09:08;100829.13;;;12.16;93.75
72262;BME280;60173;52.112;8.648;2022-09-12T00:11:39;100834.66;;;12.11;93.90
72262;BME280;60173;52.112;8.648;2022-09-12T00:14:06;100827.59;;;12.24;93.79
72262;BME280;60173;52.112;8.648;2022-09-12T00:16:35;100826.81;;;12.23;93.66
72262;BME280;60173;52.112;8.648;2022-09-12T00:19:03;100825.88;;;12.14;93.57
72262;BME280;60173;52.112;8.648;2022-09-12T00:21:32;100822.63;;;12.12;93.83
72262;BME280;60173;52.112;8.648;2022-09-12T00:23:59;100819.44;;;12.10;93.78
72262;BME280;60173;52.112;8.648;2022-09-12T00:26:25;100825.34;;;12.12;93.74
72262;BME280;60173;52.112;8.648;2022-09-12T00:28:52;100830.09;;;12.06;93.65
72262;BME280;60173;52.112;8.648;2022-09-12T00:31:21;100821.91;;;12.06;93.78
72262;BME280;60173;52.112;8.648;2022-09-12T00:33:48;100822.44;;;12.08;94.06
72262;BME280;60173;52.112;8.648;2022-09-12T00:36:20;100825.16;;;12.08;94.00
72262;BME280;60173;52.112;8.648;2022-09-12T00:38:47;100822.94;;;12.10;93.93
72262;BME280;60173;52.112;8.648;2022-09-12T00:41:27;100821.44;;;12.04;93.80
72262;BME280;60173;52.112;8.648;2022-09-12T00:43:56;100822.50;;;11.89;93.60
72262;BME280;60173;52.112;8.648;2022-09-12T00:51:46;100815.19;;;11.85;94.42
72262;BME280;60173;52.112;8.648;2022-09-12T00:54:21;100824.03;;;11.76;94.26
72262;BME280;60173;52.112;8.648;2022-09-12T00:56:52;100817.38;;;11.69;94.40
72262;BME280;60173;52.112;8.648;2022-09-12T00:59:26;100816.03;;;11.66;94.42
72262;BME280;60173;52.112;8.648;2022-09-12T01:01:54;100809.06;;;11.60;94.82
72262;BME280;60173;52.112;8.648;2022-09-12T01:04:24;100811.53;;;11.57;94.85
72262;BME280;60173;52.112;8.648;2022-09-12T01:06:53;100816.50;;;11.54;94.71
72262;BME280;60173;52.112;8.648;2022-09-12T01:09:21;100806.41;;;11.55;94.76
72262;BME280;60173;52.112;8.648;2022-09-12T01:11:49;100808.53;;;11.58;94.97
72262;BME280;60173;52.112;8.648;2022-09-12T01:14:17;100814.50;;;11.60;94.56
72262;BME280;60173;52.112;8.648;2022-09-12T01:16:45;100803.25;;;11.48;94.01
72262;BME280;60173;52.112;8.648;2022-09-12T01:25:26;100800.53;;;11.48;94.63
72262;BME280;60173;52.112;8.648;2022-09-12T01:31:13;100792.22;;;11.39;94.44
72262;BME280;60173;52.112;8.648;2022-09-12T01:36:42;100794.91;;;11.25;94.77
72262;BME280;60173;52.112;8.648;2022-09-12T01:42:12;100787.47;;;11.12;94.80
72262;BME280;60173;52.112;8.648;2022-09-12T01:45:08;100793.91;;;11.16;94.99
72262;BME280;60173;52.112;8.648;2022-09-12T01:47:40;100794.38;;;11.23;95.13
72262;BME280;60173;52.112;8.648;2022-09-12T01:50:21;100793.34;;;11.19;94.78
72262;BME280;60173;52.112;8.648;2022-09-12T01:52:56;100788.22;;;11.18;94.97
72262;BME280;60173;52.112;8.648;2022-09-12T01:55:34;100791.06;;;11.07;94.95
72262;BME280;60173;52.112;8.648;2022-09-12T01:58:27;100791.63;;;11.04;95.06
72262;BME280;60173;52.112;8.648;2022-09-12T02:04:03;100781.00;;;11.08;95.40
72262;BME280;60173;52.112;8.648;2022-09-12T02:06:32;100780.78;;;11.04;95.31
72262;BME280;60173;52.112;8.648;2022-09-12T02:09:05;100769.56;;;11.11;95.31
72262;BME280;60173;52.112;8.648;2022-09-12T02:11:37;100771.00;;;11.22;95.00
72262;BME280;60173;52.112;8.648;2022-09-12T02:14:10;100769.75;;;11.15;94.77
72262;BME280;60173;52.112;8.648;2022-09-12T02:16:48;100769.69;;;11.01;94.43
72262;BME280;60173;52.112;8.648;2022-09-12T02:19:26;100763.81;;;10.94;94.88
72262;BME280;60173;52.112;8.648;2022-09-12T02:21:59;100761.09;;;10.94;94.99
72262;BME280;60173;52.112;8.648;2022-09-12T02:24:29;100770.84;;;10.95;94.98
72262;BME280;60173;52.112;8.648;2022-09-12T02:27:02;100765.41;;;10.95;94.93
72262;BME280;60173;52.112;8.648;2022-09-12T02:29:30;100772.03;;;10.89;94.80
72262;BME280;60173;52.112;8.648;2022-09-12T02:31:58;100776.41;;;10.84;95.13
72262;BME280;60173;52.112;8.648;2022-09-12T02:39:40;100772.84;;;10.89;95.45
72262;BME280;60173;52.112;8.648;2022-09-12T02:42:10;100773.78;;;10.98;94.94
72262;BME280;60173;52.112;8.648;2022-09-12T02:44:37;100770.06;;;10.94;94.59
72262;BME280;60173;52.112;8.648;2022-09-12T02:47:07;100767.28;;;10.99;94.32
72262;BME280;60173;52.112;8.648;2022-09-12T02:49:35;100764.41;;;10.91;94.27
72262;BME280;60173;52.112;8.648;2022-09-12T02:52:02;100772.03;;;10.89;94.60
72262;BME280;60173;52.112;8.648;2022-09-12T02:54:29;100768.25;;;10.84;95.10
72262;BME280;60173;52.112;8.648;2022-09-12T02:56:56;100761.28;;;10.78;94.68
72262;BME280;60173;52.112;8.648;2022-09-12T02:59:23;100767.25;;;10.80;95.12
72262;BME280;60173;52.112;8.648;2022-09-12T03:02:09;100762.91;;;10.79;94.99
72262;BME280;60173;52.112;8.648;2022-09-12T03:07:58;100758.72;;;10.68;94.82
72262;BME280;60173;52.112;8.648;2022-09-12T03:13:24;100758.94;;;10.72;94.98
72262;BME280;60173;52.112;8.648;2022-09-12T03:16:39;100762.50;;;10.67;94.69
72262;BME280;60173;52.112;8.648;2022-09-12T03:22:12;100759.72;;;10.72;95.05
72262;BME280;60173;52.112;8.648;2022-09-12T03:24:59;100755.94;;;10.73;95.19
72262;BME280;60173;52.112;8.648;2022-09-12T03:27:38;100757.53;;;10.74;95.26
72262;BME280;60173;52.112;8.648;2022-09-12T03:30:07;100747.25;;;10.90;95.35
72262;BME280;60173;52.112;8.648;2022-09-12T03:32:45;100754.09;;;10.88;95.18
72262;BME280;60173;52.112;8.648;2022-09-12T03:35:13;100755.13;;;10.92;95.30
72262;BME280;60173;52.112;8.648;2022-09-12T03:37:40;100751.47;;;11.01;95.19
72262;BME280;60173;52.112;8.648;2022-09-12T03:40:08;100748.09;;;10.91;95.01
72262;BME280;60173;52.112;8.648;2022-09-12T03:42:35;100756.47;;;10.94;95.13
72262;BME280;60173;52.112;8.648;2022-09-12T03:45:01;100748.09;;;10.91;94.83
72262;BME280;60173;52.112;8.648;2022-09-12T03:47:27;100745.66;;;10.89;94.96
72262;BME280;60173;52.112;8.648;2022-09-12T03:49:53;100743.59;;;10.81;94.91
72262;BME280;60173;52.112;8.648;2022-09-12T03:52:20;100753.06;;;10.83;95.00
72262;BME280;60173;52.112;8.648;2022-09-12T03:54:46;100750.41;;;10.78;95.11
72262;BME280;60173;52.112;8.648;2022-09-12T03:57:12;100740.94;;;10.76;95.06
72262;BME280;60173;52.112;8.648;2022-09-12T03:59:39;100749.44;;;10.69;95.33
72262;BME280;60173;52.112;8.648;2022-09-12T04:02:05;100750.78;;;10.72;95.32
72262;BME280;60173;52.112;8.648;2022-09-12T04:04:32;100740.50;;;10.69;95.41
72262;BME280;60173;52.112;8.648;2022-09-12T04:06:58;100749.97;;;10.71;95.36
72262;BME280;60173;52.112;8.648;2022-09-12T04:09:24;100745.25;;;10.58;95.42
72262;BME280;60173;52.112;8.648;2022-09-12T04:11:51;100746.88;;;10.59;95.38
72262;BME280;60173;52.112;8.648;2022-09-12T04:14:17;100745.84;;;10.55;95.28
72262;BME280;60173;52.112;8.648;2022-09-12T04:16:43;100753.75;;;10.51;95.12
72262;BME280;60173;52.112;8.648;2022-09-12T04:19:10;100753.22;;;10.49;95.11
72262;BME280;60173;52.112;8.648;2022-09-12T04:21:37;100744.81;;;10.51;95.61
72262;BME280;60173;52.112;8.648;2022-09-12T04:24:03;100747.56;;;10.46;95.68
72262;BME280;60173;52.112;8.648;2022-09-12T04:26:30;100740.28;;;10.41;95.81
72262;BME280;60173;52.112;8.648;2022-09-12T04:28:56;100742.78;;;10.37;95.82
72262;BME280;60173;52.112;8.648;2022-09-12T04:31:24;100737.81;;;10.45;96.05
72262;BME280;60173;52.112;8.648;2022-09-12T04:33:56;100740.59;;;10.39;95.73
72262;BME280;60173;52.112;8.648;2022-09-12T04:36:23;100742.59;;;10.29;95.61
72262;BME280;60173;52.112;8.648;2022-09-12T04:38:50;100746.88;;;10.35;95.43
72262;BME280;60173;52.112;8.648;2022-09-12T04:41:24;100750.50;;;10.25;95.20
72262;BME280;60173;52.112;8.648;2022-09-12T04:43:53;100750.53;;;10.20;95.12
72262;BME280;60173;52.112;8.648;2022-09-12T04:46:20;100744.53;;;10.28;95.46
72262;BME280;60173;52.112;8.648;2022-09-12T04:48:47;100744.53;;;10.28;95.60
72262;BME280;60173;52.112;8.648;2022-09-12T04:51:21;100748.88;;;10.24;95.39
72262;BME280;60173;52.112;8.648;2022-09-12T04:53:50;100749.97;;;10.23;95.64
72262;BME280;60173;52.112;8.648;2022-09-12T04:56:18;100746.69;;;10.26;95.53
72262;BME280;60173;52.112;8.648;2022-09-12T04:58:45;100740.44;;;10.31;95.80
72262;BME280;60173;52.112;8.648;2022-09-12T05:01:16;100736.53;;;10.37;95.62
72262;BME280;60173;52.112;8.648;2022-09-12T05:03:45;100736.94;;;10.49;95.39
72262;BME280;60173;52.112;8.648;2022-09-12T05:06:15;100739.97;;;10.48;95.08
72262;BME280;60173;52.112;8.648;2022-09-12T05:08:42;100739.97;;;10.48;95.35
72262;BME280;60173;52.112;8.648;2022-09-12T05:11:16;100736.13;;;10.49;95.42
72262;BME280;60173;52.112;8.648;2022-09-12T05:13:49;100741.19;;;10.55;95.42
72262;BME280;60173;52.112;8.648;2022-09-12T05:16:17;100737.63;;;10.60;95.56
72262;BME280;60173;52.112;8.648;2022-09-12T05:18:44;100734.75;;;10.70;95.48
72262;BME280;60173;52.112;8.648;2022-09-12T05:21:12;100735.50;;;10.76;95.37
72262;BME280;60173;52.112;8.648;2022-09-12T05:23:39;100733.53;;;10.81;95.38
72262;BME280;60173;52.112;8.648;2022-09-12T05:26:06;100724.50;;;10.86;95.25
72262;BME280;60173;52.112;8.648;2022-09-12T05:28:35;100729.56;;;10.93;95.08
72262;BME280;60173;52.112;8.648;2022-09-12T05:33:36;100730.38;;;11.12;94.45
72262;BME280;60173;52.112;8.648;2022-09-12T05:36:04;100734.84;;;11.22;94.39
72262;BME280;60173;52.112;8.648;2022-09-12T05:38:33;100736.25;;;11.19;93.88
72262;BME280;60173;52.112;8.648;2022-09-12T05:41:22;100736.34;;;11.14;93.64
72262;BME280;60173;52.112;8.648;2022-09-12T05:43:55;100736.97;;;11.25;93.43
72262;BME280;60173;52.112;8.648;2022-09-12T05:46:24;100733.97;;;11.26;93.46
72262;BME280;60173;52.112;8.648;2022-09-12T05:48:52;100744.66;;;11.37;93.01
72262;BME280;60173;52.112;8.648;2022-09-12T05:51:27;100741.09;;;11.41;93.04
72262;BME280;60173;52.112;8.648;2022-09-12T05:53:58;100733.06;;;11.50;92.93
72262;BME280;60173;52.112;8.648;2022-09-12T05:56:27;100737.38;;;11.51;92.84
72262;BME280;60173;52.112;8.648;2022-09-12T05:59:02;100737.22;;;11.61;92.88
72262;BME280;60173;52.112;8.648;2022-09-12T06:01:30;100741.59;;;11.76;92.71
72262;BME280;60173;52.112;8.648;2022-09-12T06:03:59;100743.69;;;11.98;92.47
72262;BME280;60173;52.112;8.648;2022-09-12T06:06:27;100733.41;;;12.23;91.71
72262;BME280;60173;52.112;8.648;2022-09-12T06:08:59;100734.06;;;12.70;90.88
72262;BME280;60173;52.112;8.648;2022-09-12T06:11:28;100740.38;;;13.43;89.49
72262;BME280;60173;52.112;8.648;2022-09-12T06:13:56;100738.66;;;13.78;87.31
72262;BME280;60173;52.112;8.648;2022-09-12T06:16:26;100746.81;;;14.00;84.70
72262;BME280;60173;52.112;8.648;2022-09-12T06:18:55;100738.47;;;14.06;83.47
72262;BME280;60173;52.112;8.648;2022-09-12T06:21:23;100734.13;;;14.44;83.30
72262;BME280;60173;52.112;8.648;2022-09-12T06:23:49;100732.50;;;14.43;81.74
72262;BME280;60173;52.112;8.648;2022-09-12T06:26:17;100724.13;;;14.88;79.94
72262;BME280;60173;52.112;8.648;2022-09-12T06:28:44;100723.59;;;14.69;79.91
72262;BME280;60173;52.112;8.648;2022-09-12T06:31:16;100721.22;;;14.76;80.24
72262;BME280;60173;52.112;8.648;2022-09-12T06:33:45;100721.22;;;15.02;78.96
72262;BME280;60173;52.112;8.648;2022-09-12T06:36:18;100725.41;;;15.17;79.13
72262;BME280;60173;52.112;8.648;2022-09-12T06:38:45;100723.47;;;14.83;79.90
72262;BME280;60173;52.112;8.648;2022-09-12T06:41:12;100716.06;;;15.18;79.41
72262;BME280;60173;52.112;8.648;2022-09-12T06:43:40;100711.38;;;15.36;77.67
72262;BME280;60173;52.112;8.648;2022-09-12T06:46:07;100713.03;;;15.11;78.10
72262;BME280;60173;52.112;8.648;2022-09-12T06:48:34;100707.00;;;15.61;78.42
72262;BME280;60173;52.112;8.648;2022-09-12T06:51:12;100714.09;;;15.79;76.46
72262;BME280;60173;52.112;8.648;2022-09-12T06:53:39;100711.34;;;15.79;77.15
72262;BME280;60173;52.112;8.648;2022-09-12T06:56:09;100704.13;;;15.49;77.31
72262;BME280;60173;52.112;8.648;2022-09-12T06:58:36;100711.34;;;15.62;77.71
72262;BME280;60173;52.112;8.648;2022-09-12T07:03:34;100706.09;;;16.04;76.24
72262;BME280;60173;52.112;8.648;2022-09-12T07:06:09;100703.75;;;16.23;74.58
72262;BME280;60173;52.112;8.648;2022-09-12T07:08:36;100711.19;;;16.23;75.20
72262;BME280;60173;52.112;8.648;2022-09-12T07:11:19;100713.81;;;16.02;75.09
72262;BME280;60173;52.112;8.648;2022-09-12T07:13:48;100718.56;;;15.84;75.89
72262;BME280;60173;52.112;8.648;2022-09-12T07:16:15;100716.09;;;16.00;75.62
72262;BME280;60173;52.112;8.648;2022-09-12T07:18:50;100712.59;;;16.29;75.08
72262;BME280;60173;52.112;8.648;2022-09-12T07:21:17;100707.41;;;16.57;74.10
72262;BME280;60173;52.112;8.648;2022-09-12T07:23:43;100712.78;;;16.75;73.67
72262;BME280;60173;52.112;8.648;2022-09-12T07:26:11;100716.88;;;16.98;73.49
72262;BME280;60173;52.112;8.648;2022-09-12T07:28:38;100720.06;;;17.00;72.87
72262;BME280;60173;52.112;8.648;2022-09-12T07:33:36;100715.16;;;17.06;72.16
72262;BME280;60173;52.112;8.648;2022-09-12T07:36:05;100707.22;;;17.13;71.50
72262;BME280;60173;52.112;8.648;2022-09-12T07:38:32;100707.91;;;17.43;71.50
72262;BME280;60173;52.112;8.648;2022-09-12T07:40:58;100711.09;;;17.45;70.50
72262;BME280;60173;52.112;8.648;2022-09-12T07:43:24;100701.63;;;17.55;70.05
72262;BME280;60173;52.112;8.648;2022-09-12T07:45:57;100708.41;;;17.70;70.20
72262;BME280;60173;52.112;8.648;2022-09-12T07:48:23;100704.84;;;17.57;69.42
72262;BME280;60173;52.112;8.648;2022-09-12T07:50:59;100714.97;;;17.44;69.23
72262;BME280;60173;52.112;8.648;2022-09-12T07:53:30;100709.16;;;17.79;69.82
72262;BME280;60173;52.112;8.648;2022-09-12T07:55:57;100719.94;;;17.84;69.76
72262;BME280;60173;52.112;8.648;2022-09-12T07:58:24;100717.13;;;18.17;68.96
72262;BME280;60173;52.112;8.648;2022-09-12T08:00:50;100711.72;;;18.21;67.71
72262;BME280;60173;52.112;8.648;2022-09-12T08:03:16;100706.66;;;18.11;68.11
72262;BME280;60173;52.112;8.648;2022-09-12T08:05:43;100718.28;;;18.28;67.66
72262;BME280;60173;52.112;8.648;2022-09-12T08:08:09;100716.63;;;18.64;66.92
72262;BME280;60173;52.112;8.648;2022-09-12T08:10:36;100717.41;;;18.89;66.51
72262;BME280;60173;52.112;8.648;2022-09-12T08:13:02;100717.94;;;19.07;65.88
72262;BME280;60173;52.112;8.648;2022-09-12T08:15:29;100711.38;;;19.12;65.51
72262;BME280;60173;52.112;8.648;2022-09-12T08:17:55;100720.56;;;19.44;64.68
72262;BME280;60173;52.112;8.648;2022-09-12T08:20:21;100717.06;;;19.75;63.78
72262;BME280;60173;52.112;8.648;2022-09-12T08:22:53;100720.63;;;19.92;62.44
72262;BME280;60173;52.112;8.648;2022-09-12T08:25:19;100724.56;;;20.06;61.48
72262;BME280;60173;52.112;8.648;2022-09-12T08:27:46;100725.63;;;20.02;61.88
72262;BME280;60173;52.112;8.648;2022-09-12T08:30:12;100720.28;;;19.77;62.51
72262;BME280;60173;52.112;8.648;2022-09-12T08:32:39;100722.84;;;19.70;63.55
72262;BME280;60173;52.112;8.648;2022-09-12T08:35:05;100725.19;;;19.56;64.17
72262;BME280;60173;52.112;8.648;2022-09-12T08:37:32;100723.31;;;19.60;63.31
72262;BME280;60173;52.112;8.648;2022-09-12T08:39:58;100720.97;;;19.74;63.07
72262;BME280;60173;52.112;8.648;2022-09-12T08:42:37;100715.84;;;19.89;61.83
72262;BME280;60173;52.112;8.648;2022-09-12T08:45:17;100711.03;;;20.01;62.61
72262;BME280;60173;52.112;8.648;2022-09-12T08:47:45;100711.66;;;19.79;62.63
72262;BME280;60173;52.112;8.648;2022-09-12T08:50:16;100708.47;;;20.08;61.98
72262;BME280;60173;52.112;8.648;2022-09-12T08:53:03;100710.06;;;20.09;62.59
72262;BME280;60173;52.112;8.648;2022-09-12T08:58:11;100709.34;;;20.28;61.96
72262;BME280;60173;52.112;8.648;2022-09-12T09:01:08;100707.66;;;19.76;61.88
72262;BME280;60173;52.112;8.648;2022-09-12T09:09:18;100708.00;;;20.54;60.94
72262;BME280;60173;52.112;8.648;2022-09-12T09:15:02;100692.47;;;20.65;59.65
72262;BME280;60173;52.112;8.648;2022-09-12T09:17:43;100696.97;;;20.54;60.49
72262;BME280;60173;52.112;8.648;2022-09-12T09:20:25;100694.88;;;20.67;61.18
72262;BME280;60173;52.112;8.648;2022-09-12T09:23:05;100692.75;;;20.60;61.01
72262;BME280;60173;52.112;8.648;2022-09-12T09:25:41;100693.06;;;20.74;59.61
72262;BME280;60173;52.112;8.648;2022-09-12T09:28:18;100685.97;;;20.93;60.04
72262;BME280;60173;52.112;8.648;2022-09-12T09:30:47;100685.38;;;21.23;59.01
72262;BME280;60173;52.112;8.648;2022-09-12T09:33:22;100683.31;;;21.58;58.15
72262;BME280;60173;52.112;8.648;2022-09-12T09:38:43;100675.34;;;21.53;57.47
72262;BME280;60173;52.112;8.648;2022-09-12T09:41:38;100671.03;;;21.56;57.23
72262;BME280;60173;52.112;8.648;2022-09-12T09:44:07;100679.00;;;21.61;57.48
72262;BME280;60173;52.112;8.648;2022-09-12T09:46:38;100671.94;;;21.63;57.58
72262;BME280;60173;52.112;8.648;2022-09-12T09:49:05;100667.25;;;21.64;57.61
72262;BME280;60173;52.112;8.648;2022-09-12T09:51:38;100668.88;;;21.69;57.55
72262;BME280;60173;52.112;8.648;2022-09-12T09:54:22;100665.63;;;21.63;57.38
72262;BME280;60173;52.112;8.648;2022-09-12T09:56:49;100659.53;;;21.77;56.56
72262;BME280;60173;52.112;8.648;2022-09-12T09:59:29;100666.53;;;21.94;55.85
72262;BME280;60173;52.112;8.648;2022-09-12T10:04:55;100672.88;;;21.94;57.00
72262;BME280;60173;52.112;8.648;2022-09-12T10:07:23;100670.63;;;22.03;56.27
72262;BME280;60173;52.112;8.648;2022-09-12T10:10:13;100657.03;;;21.68;56.43
72262;BME280;60173;52.112;8.648;2022-09-12T10:12:40;100662.34;;;22.03;56.39
72262;BME280;60173;52.112;8.648;2022-09-12T10:17:44;100660.97;;;22.17;55.33
72262;BME280;60173;52.112;8.648;2022-09-12T10:20:36;100657.88;;;22.18;54.54
72262;BME280;60173;52.112;8.648;2022-09-12T10:23:32;100660.50;;;22.11;55.03
72262;BME280;60173;52.112;8.648;2022-09-12T10:26:00;100656.31;;;22.47;54.83
72262;BME280;60173;52.112;8.648;2022-09-12T10:30:59;100650.44;;;22.52;55.08
72262;BME280;60173;52.112;8.648;2022-09-12T10:33:26;100641.81;;;22.58;53.44
72262;BME280;60173;52.112;8.648;2022-09-12T10:35:53;100645.56;;;22.72;53.00
72262;BME280;60173;52.112;8.648;2022-09-12T10:38:23;100640.28;;;22.60;54.18
72262;BME280;60173;52.112;8.648;2022-09-12T10:40:56;100645.34;;;22.54;54.48
72262;BME280;60173;52.112;8.648;2022-09-12T10:45:50;100637.41;;;22.53;54.21
72262;BME280;60173;52.112;8.648;2022-09-12T10:48:29;76747.91;;;22.49;54.59
72262;BME280;60173;52.112;8.648;2022-09-12T10:51:00;100640.56;;;22.51;54.29
72262;BME280;60173;52.112;8.648;2022-09-12T10:53:28;100631.53;;;22.58;53.68
72262;BME280;60173;52.112;8.648;2022-09-12T10:56:07;100631.03;;;22.49;54.13
72262;BME280;60173;52.112;8.648;2022-09-12T11:04:13;100628.44;;;22.33;55.17
72262;BME280;60173;52.112;8.648;2022-09-12T11:09:48;100628.13;;;22.38;54.50
72262;BME280;60173;52.112;8.648;2022-09-12T11:12:35;100621.84;;;22.71;55.26
72262;BME280;60173;52.112;8.648;2022-09-12T11:23:25;100606.25;;;22.93;53.67
72262;BME280;60173;52.112;8.648;2022-09-12T11:26:31;100598.53;;;22.76;54.00
72262;BME280;60173;52.112;8.648;2022-09-12T11:29:11;100599.66;;;23.01;53.35
72262;BME280;60173;52.112;8.648;2022-09-12T11:40:44;100590.28;;;22.79;54.09
72262;BME280;60173;52.112;8.648;2022-09-12T11:45:58;100590.63;;;23.08;52.60
72262;BME280;60173;52.112;8.648;2022-09-12T11:48:41;100589.34;;;23.39;51.25
72262;BME280;60173;52.112;8.648;2022-09-12T11:51:40;100591.78;;;23.44;51.53
72262;BME280;60173;52.112;8.648;2022-09-12T11:54:37;100585.69;;;23.28;50.79
72262;BME280;60173;52.112;8.648;2022-09-12T11:57:14;100583.50;;;23.07;51.82
72262;BME280;60173;52.112;8.648;2022-09-12T12:05:52;100571.38;;;23.22;49.30
72262;BME280;60173;52.112;8.648;2022-09-12T12:08:22;100563.56;;;23.32;47.17
72262;BME280;60173;52.112;8.648;2022-09-12T12:10:57;100562.75;;;23.31;48.53
72262;BME280;60173;52.112;8.648;2022-09-12T12:13:31;100565.28;;;23.51;46.66
72262;BME280;60173;52.112;8.648;2022-09-12T12:16:01;100556.31;;;23.68;45.74
72262;BME280;60173;52.112;8.648;2022-09-12T12:18:31;100553.56;;;23.68;47.37
72262;BME280;60173;52.112;8.648;2022-09-12T12:21:37;100558.41;;;23.78;46.86
72262;BME280;60173;52.112;8.648;2022-09-12T12:29:50;100551.00;;;23.49;46.30
72262;BME280;60173;52.112;8.648;2022-09-12T12:34:43;100549.81;;;23.46;46.69
72262;BME280;60173;52.112;8.648;2022-09-12T12:47:54;100531.91;;;23.84;45.56
72262;BME280;60173;52.112;8.648;2022-09-12T12:50:24;100530.31;;;23.83;46.24
72262;BME280;60173;52.112;8.648;2022-09-12T12:52:58;100535.94;;;23.94;46.14
72262;BME280;60173;52.112;8.648;2022-09-12T12:55:57;100528.31;;;23.80;45.37
72262;BME280;60173;52.112;8.648;2022-09-12T12:58:37;100528.72;;;23.79;45.35
72262;BME280;60173;52.112;8.648;2022-09-12T13:01:16;100516.41;;;23.76;45.64
72262;BME280;60173;52.112;8.648;2022-09-12T13:03:45;100519.97;;;23.80;44.62
72262;BME280;60173;52.112;8.648;2022-09-12T13:06:35;100521.19;;;23.79;44.06
72262;BME280;60173;52.112;8.648;2022-09-12T13:09:22;100512.72;;;23.65;43.68
72262;BME280;60173;52.112;8.648;2022-09-12T13:12:02;100507.91;;;23.55;44.85
72262;BME280;60173;52.112;8.648;2022-09-12T13:17:43;100495.00;;;23.73;46.83
72262;BME280;60173;52.112;8.648;2022-09-12T13:22:53;100485.00;;;23.65;44.58
72262;BME280;60173;52.112;8.648;2022-09-12T13:28:03;100466.06;;;23.74;44.37
72262;BME280;60173;52.112;8.648;2022-09-12T13:30:36;100457.41;;;23.79;44.43
72262;BME280;60173;52.112;8.648;2022-09-12T13:33:23;100461.03;;;23.90;44.00
72262;BME280;60173;52.112;8.648;2022-09-12T13:36:21;100461.47;;;24.03;45.56
72262;BME280;60173;52.112;8.648;2022-09-12T13:44:43;100454.78;;;24.11;43.57
72262;BME280;60173;52.112;8.648;2022-09-12T13:47:25;100460.75;;;24.17;44.62
72262;BME280;60173;52.112;8.648;2022-09-12T13:49:53;100457.19;;;24.20;45.50
72262;BME280;60173;52.112;8.648;2022-09-12T13:52:27;100452.41;;;24.10;44.23
72262;BME280;60173;52.112;8.648;2022-09-12T13:54:56;100448.84;;;24.13;44.40
72262;BME280;60173;52.112;8.648;2022-09-12T13:57:29;100438.59;;;24.31;44.35
72262;BME280;60173;52.112;8.648;2022-09-12T13:59:57;100437.78;;;24.27;44.57
72262;BME280;60173;52.112;8.648;2022-09-12T14:02:26;100443.34;;;24.34;43.49
72262;BME280;60173;52.112;8.648;2022-09-12T14:04:54;100436.66;;;24.46;43.41
72262;BME280;60173;52.112;8.648;2022-09-12T14:07:22;100438.59;;;24.31;44.33
72262;BME280;60173;52.112;8.648;2022-09-12T14:09:55;100437.41;;;24.36;43.13
72262;BME280;60173;52.112;8.648;2022-09-12T14:12:38;100436.97;;;24.23;44.24
72262;BME280;60173;52.112;8.648;2022-09-12T14:15:13;100435.75;;;24.13;43.96
72262;BME280;60173;52.112;8.648;2022-09-12T14:17:48;100425.88;;;24.16;43.25
72262;BME280;60173;52.112;8.648;2022-09-12T14:20:14;100412.00;;;24.27;43.32
72262;BME280;60173;52.112;8.648;2022-09-12T14:22:41;100409.25;;;24.30;42.95
72262;BME280;60173;52.112;8.648;2022-09-12T14:25:16;100414.78;;;24.23;43.09
72262;BME280;60173;52.112;8.648;2022-09-12T14:27:46;100410.03;;;24.27;42.12
72262;BME280;60173;52.112;8.648;2022-09-12T14:30:28;100412.38;;;24.18;43.13
72262;BME280;60173;52.112;8.648;2022-09-12T14:35:41;100408.38;;;24.05;44.24
72262;BME280;60173;52.112;8.648;2022-09-12T14:40:44;100398.81;;;23.95;44.30
72262;BME280;60173;52.112;8.648;2022-09-12T14:43:20;100401.31;;;24.25;43.32
72262;BME280;60173;52.112;8.648;2022-09-12T14:46:17;100398.91;;;24.17;42.22
72262;BME280;60173;52.112;8.648;2022-09-12T14:48:53;100395.72;;;24.07;43.65
72262;BME280;60173;52.112;8.648;2022-09-12T14:51:25;100389.75;;;24.09;45.16
72262;BME280;60173;52.112;8.648;2022-09-12T14:53:53;100389.38;;;24.18;42.99
72262;BME280;60173;52.112;8.648;2022-09-12T14:56:21;100390.53;;;23.99;44.02
72262;BME280;60173;52.112;8.648;2022-09-12T14:58:47;100388.13;;;24.01;44.43
72262;BME280;60173;52.112;8.648;2022-09-12T15:03:50;100381.78;;;23.93;43.64
72262;BME280;60173;52.112;8.648;2022-09-12T15:08:54;100383.03;;;24.13;44.14
72262;BME280;60173;52.112;8.648;2022-09-12T15:11:21;100381.47;;;24.16;42.52
72262;BME280;60173;52.112;8.648;2022-09-12T15:13:47;100378.25;;;24.07;43.72
72262;BME280;60173;52.112;8.648;2022-09-12T15:16:14;100375.06;;;23.94;43.90
72262;BME280;60173;52.112;8.648;2022-09-12T15:18:41;100376.56;;;23.81;44.95
72262;BME280;60173;52.112;8.648;2022-09-12T15:21:12;100369.81;;;23.75;44.69
72262;BME280;60173;52.112;8.648;2022-09-12T15:23:42;100370.13;;;23.59;45.16
72262;BME280;60173;52.112;8.648;2022-09-12T15:26:13;100373.63;;;23.49;44.61
72262;BME280;60173;52.112;8.648;2022-09-12T15:28:39;100361.75;;;23.52;44.20
72262;BME280;60173;52.112;8.648;2022-09-12T15:31:11;100364.53;;;23.48;44.81
72262;BME280;60173;52.112;8.648;2022-09-12T15:33:38;100364.16;;;23.50;44.06
72262;BME280;60173;52.112;8.648;2022-09-12T15:36:12;100359.81;;;23.56;44.25
72262;BME280;60173;52.112;8.648;2022-09-12T15:38:38;100359.03;;;23.59;44.24
72262;BME280;60173;52.112;8.648;2022-09-12T15:41:09;100357.47;;;23.58;44.30
72262;BME280;60173;52.112;8.648;2022-09-12T15:43:36;100353.44;;;23.52;44.71